• Join FlightAware (Why Join?)
  • Login
  • US Flag 
12:43AM EDT


 

Airport Tracker/Info


-or-


 

Live Flight TrackerFlight Track Log ✈ PDT4314 ✈ 28-Oct-2013 ✈ KPHL - KBGM

Flight Track Log - Related Links

Times and Time Zones

All times are in EDT time to prevent confusion due to time zone crossing. See the PDT4314 flight status page for this flight to view local times or setup timezone preferences in your user account.

Time Position Orientation Groundspeed Altitude Reporting Facility
EDT Latitude Longitude Course Direction KTS MPH feet Rate Location/Type
04:23PM 39.9000 -75.2333 297° West 125 144 600  Level Philadelphia TRACON
04:23PM 39.9167 -75.2667 303° West 136 157 1,800 1,440 Climbing Philadelphia TRACON
04:25PM 40.0524 -75.2960 323° Northwest  Level Estimated
04:25PM 39.9406 -75.3708 287° West 153 176 4,700  Level New York Center
04:26PM 40.1125 -75.3144 311° West  Level Estimated
04:26PM 39.9514 -75.4122 289° West 153 176 5,500  Level New York Center
04:27PM 40.1725 -75.3328 311° West  Level Estimated
04:27PM 39.9322 -75.4731 248° West 148 170 7,400  Level New York Center
04:28PM 40.2008 -75.4046 297° West  Level FlightAware Approximate
04:28PM 39.9583 -75.4967 325° Northwest 110 127 8,600  Level New York Center
04:29PM 40.0081 -75.5081 350° North 139 160 9,100 240 Climbing New York Center
04:30PM 40.0611 -75.5306 342° North 189 217 9,100  Level New York Center
04:31PM 40.1275 -75.5433 352° North 227 261 9,100  Level New York Center
04:32PM 40.1894 -75.5558 351° North 233 268 9,100 300 Level New York Center
04:33PM 40.2428 -75.5758 344° North 226 260 9,700 660 Climbing New York Center
04:34PM 40.2758 -75.6353 306° West 202 232 10,500 960 Climbing New York Center
04:35PM 40.3133 -75.6869 314° West 191 220 11,700 1,080 Climbing New York Center
04:36PM 40.3447 -75.7328 312° West 180 207 12,700 1,020 Climbing New York Center
04:37PM 40.3700 -75.7781 306° West 163 188 13,800 600 Climbing New York Center
04:38PM 40.3931 -75.8206 305° West 163 188 14,000 60 Climbing New York Center
04:39PM 40.4342 -75.8808 312° West 183 211 14,000  Level New York Center
04:40PM 40.4714 -75.9356 312° West 197 227 14,000  Level New York Center
04:41PM 40.5083 -75.9983 308° West 215 247 14,000  Level New York Center
04:42PM 40.5453 -76.0586 309° West 215 247 14,000  Level New York Center
04:43PM 40.5783 -76.1131 309° West 215 247 14,000  Level New York Center
04:44PM 40.6172 -76.1733 310° West 215 247 14,000  Level New York Center
04:45PM 40.6619 -76.2428 310° West 215 247 14,000  Level New York Center
04:46PM 40.7242 -76.2478 357° North 199 229 14,100  Climbing New York Center
04:47PM 40.7894 -76.2336 North 226 260 14,100  Level New York Center
04:48PM 40.8519 -76.2358 358° North 239 275 14,100  Level New York Center
04:49PM 40.9189 -76.2303 North 239 275 14,100  Level New York Center
04:50PM 40.9858 -76.2247 North 239 275 14,100  Level New York Center
04:51PM 41.0525 -76.2244 360° North 234 269 14,100 -60 Level New York Center
04:52PM 41.1300 -76.2169 North 234 269 14,000 -60 Descending New York Center
04:53PM 41.1967 -76.2114 North 234 269 14,000  Level New York Center
04:54PM 41.2636 -76.2083 North 234 269 14,000  Level New York Center
04:55PM 41.3222 -76.2022 North 234 269 14,000  Level New York Center
04:56PM 41.3889 -76.1992 North 234 269 14,000  Level New York Center
04:57PM 41.4603 -76.1883 North 234 269 14,000 -360 Level New York Center
04:58PM 41.5294 -76.1800 North 239 275 13,300 -840 Descending New York Center
04:59PM 41.6003 -76.1775 North 244 281 12,400 -960 Descending New York Center
05:00PM 41.6650 -76.1772 360° North 256 295 11,400 -1,020 Descending New York Center
05:01PM 41.7381 -76.1719 North 256 295 10,400 -1,080 Descending New York Center
05:02PM 41.8136 -76.1614 North 256 295 9,300 -1,080 Descending New York Center
05:03PM 41.8761 -76.1136 30° Northeast 251 289 8,300 -1,080 Descending New York Center
05:04PM 41.9386 -76.0628 31° Northeast 257 296 7,200 -1,380 Descending New York Center
05:05PM 41.9969 -76.0200 29° Northeast 262 302 5,600 -1,620 Descending New York Center
05:06PM 42.0633 -75.9778 25° Northeast 249 287 4,000 -1,320 Descending New York Center
05:07PM 42.1122 -75.9536 20° North 216 249 3,000 -720 Descending New York Center
05:08PM 42.1542 -75.9431 11° North 182 209 2,600 -480 Descending New York Center
05:09PM 42.1786 -75.9561 338° Northwest 146 168 2,100 -540 Descending New York Center